Time;durP1;ratioP1;P1;durP2;ratioP2;P2;SDS_P1;SDS_P2;PMS_P1;PMS_P2;Temp;Humidity;BMP_temperature;BMP_pressure;BME280_temperature;BME280_humidity;BME280_pressure;Samples;Min_cycle;Max_cycle;Signal;HPM_P1;HPM_P2
2023/09/28 00:02:54;;;;;;;4.97;4.45;;;;;16.50;98635.00;;;;5053996;28;20076;-66
2023/09/28 00:05:21;;;;;;;8.40;4.88;;;;;16.40;98617.00;;;;5053411;28;20072;-66
2023/09/28 00:07:51;;;;;;;6.07;4.50;;;;;16.30;98620.00;;;;5052593;28;20556;-66
2023/09/28 00:10:18;;;;;;;8.60;4.68;;;;;16.20;98623.00;;;;5053810;28;20049;-65
2023/09/28 00:12:49;;;;;;;5.90;4.57;;;;;16.30;98621.00;;;;5053690;28;20128;-66
2023/09/28 00:15:17;;;;;;;6.78;4.80;;;;;16.30;98638.00;;;;5051308;28;20573;-67
2023/09/28 00:17:47;;;;;;;5.18;4.47;;;;;16.30;98633.00;;;;5053374;28;20044;-67
2023/09/28 00:20:19;;;;;;;4.90;4.40;;;;;16.20;98627.00;;;;5053053;28;20120;-67
2023/09/28 00:22:49;;;;;;;4.95;4.20;;;;;16.20;98645.00;;;;5053507;28;20437;-67
2023/09/28 00:25:16;;;;;;;5.03;4.53;;;;;16.20;98632.00;;;;5052687;28;20091;-66
2023/09/28 00:27:45;;;;;;;5.35;4.28;;;;;16.20;98629.00;;;;5053137;28;20051;-66
2023/09/28 00:30:13;;;;;;;6.15;5.00;;;;;16.30;98639.00;;;;5035606;28;20041;-67
2023/09/28 00:32:42;;;;;;;10.25;4.70;;;;;16.40;98625.00;;;;5053258;28;20457;-66
2023/09/28 00:35:09;;;;;;;9.95;5.22;;;;;16.40;98628.00;;;;5052650;28;20068;-67
2023/09/28 00:37:36;;;;;;;7.78;5.13;;;;;16.40;98627.00;;;;5053339;28;20060;-66
2023/09/28 00:40:27;;;;;;;4.57;4.18;;;;;16.40;98622.00;;;;5051904;28;20052;-67
2023/09/28 00:42:56;;;;;;;5.25;4.43;;;;;16.50;98626.00;;;;5052111;28;20069;-67
2023/09/28 00:45:24;;;;;;;4.53;4.13;;;;;16.50;98620.00;;;;5051420;28;20411;-67
2023/09/28 00:47:54;;;;;;;6.95;4.93;;;;;16.40;98617.00;;;;5053075;28;20681;-67
2023/09/28 00:50:22;;;;;;;4.55;4.00;;;;;16.30;98622.00;;;;5051748;28;20056;-67
2023/09/28 00:52:52;;;;;;;4.88;4.30;;;;;16.20;98620.00;;;;5035210;28;20191;-67
2023/09/28 00:55:20;;;;;;;6.15;4.30;;;;;16.30;98619.00;;;;5052375;28;20041;-67
2023/09/28 00:57:47;;;;;;;7.88;4.10;;;;;16.40;98628.00;;;;5052085;28;20045;-67
2023/09/28 01:00:18;;;;;;;4.70;4.10;;;;;16.50;98628.00;;;;5015780;28;1049637;-67
2023/09/28 01:02:50;;;;;;;5.90;4.00;;;;;16.50;98632.00;;;;5053285;28;20049;-67
2023/09/28 01:05:19;;;;;;;3.90;3.47;;;;;16.60;98643.00;;;;5052439;28;20045;-67
2023/09/28 01:07:46;;;;;;;5.82;4.10;;;;;16.70;98643.00;;;;5054048;28;20119;-68
2023/09/28 01:10:14;;;;;;;5.05;4.55;;;;;16.70;98644.00;;;;5055058;28;20065;-67
2023/09/28 01:12:41;;;;;;;5.38;4.55;;;;;16.60;98641.00;;;;5054641;28;20127;-67
2023/09/28 01:15:11;;;;;;;6.93;4.30;;;;;16.60;98646.00;;;;5052957;28;20107;-67
2023/09/28 01:17:39;;;;;;;5.30;4.78;;;;;16.70;98640.00;;;;5053521;28;20080;-67
2023/09/28 01:20:16;;;;;;;5.18;4.65;;;;;16.50;98623.00;;;;5053673;28;20135;-68
2023/09/28 01:22:49;;;;;;;5.53;4.75;;;;;16.20;98622.00;;;;5053409;28;20466;-67
2023/09/28 01:25:18;;;;;;;4.53;4.13;;;;;16.30;98632.00;;;;5051866;28;20045;-67
2023/09/28 01:27:46;;;;;;;7.63;4.35;;;;;16.20;98623.00;;;;5052067;28;20579;-67
2023/09/28 01:30:14;;;;;;;8.63;4.95;;;;;16.30;98630.00;;;;5052916;28;20045;-68
2023/09/28 01:32:42;;;;;;;5.32;4.00;;;;;16.30;98640.00;;;;5051732;28;20426;-67
2023/09/28 01:35:11;;;;;;;5.30;4.28;;;;;16.40;98641.00;;;;5051427;28;20067;-67
2023/09/28 01:38:06;;;;;;;7.07;4.07;;;;;16.30;98641.00;;;;5053411;28;20037;-67
2023/09/28 01:40:32;;;;;;;5.07;3.95;;;;;16.10;98637.00;;;;5053625;28;20374;-66
2023/09/28 01:42:59;;;;;;;5.03;4.20;;;;;16.10;98635.00;;;;5051966;28;20049;-67
2023/09/28 01:45:26;;;;;;;7.05;4.32;;;;;16.10;98639.00;;;;5051697;28;20068;-68
2023/09/28 01:47:52;;;;;;;4.50;4.10;;;;;16.20;98639.00;;;;5053253;28;20041;-67
2023/09/28 01:50:19;;;;;;;6.18;4.65;;;;;16.20;98638.00;;;;5053394;28;20440;-67
2023/09/28 01:52:45;;;;;;;4.50;4.10;;;;;16.20;98634.00;;;;5052895;28;20108;-68
2023/09/28 01:55:12;;;;;;;5.28;4.45;;;;;16.20;98635.00;;;;5054956;28;20140;-67
2023/09/28 01:57:41;;;;;;;6.25;4.20;;;;;16.10;98639.00;;;;5055707;28;20041;-66
2023/09/28 02:00:19;;;;;;;4.70;3.88;;;;;16.20;98642.00;;;;5052992;28;20067;-66
2023/09/28 02:02:47;;;;;;;4.93;4.15;;;;;16.20;98647.00;;;;5055351;28;20049;-66
2023/09/28 02:05:18;;;;;;;6.45;4.53;;;;;16.20;98640.00;;;;5053533;28;20060;-66
2023/09/28 02:07:45;;;;;;;5.53;4.35;;;;;16.10;98649.00;;;;5052955;28;20055;-66
2023/09/28 02:10:12;;;;;;;5.10;4.60;;;;;16.20;98654.00;;;;5037564;28;20063;-66
2023/09/28 02:12:40;;;;;;;6.25;4.05;;;;;16.30;98649.00;;;;5053262;28;20045;-66
2023/09/28 02:15:09;;;;;;;5.18;4.55;;;;;16.40;98657.00;;;;5052016;28;20057;-66
2023/09/28 02:17:36;;;;;;;6.38;4.32;;;;;16.40;98650.00;;;;5051147;28;20494;-65
2023/09/28 02:20:10;;;;;;;5.07;4.10;;;;;16.40;98659.00;;;;5052516;28;20041;-67
2023/09/28 02:22:43;;;;;;;;;;;;;16.40;98662.00;;;;5053004;28;20107;-67
2023/09/28 02:25:17;;;;;;;6.72;4.10;;;;;16.30;98652.00;;;;5051799;28;19921;-67
2023/09/28 02:27:46;;;;;;;5.82;4.65;;;;;16.20;98660.00;;;;5052328;28;20051;-67
2023/09/28 02:30:17;;;;;;;5.75;4.57;;;;;16.30;98656.00;;;;5051511;28;20049;-66
2023/09/28 02:32:44;;;;;;;6.32;4.63;;;;;16.40;98662.00;;;;5051042;28;20045;-66
2023/09/28 02:35:13;;;;;;;4.43;4.03;;;;;16.40;98658.00;;;;5050234;28;20049;-66
2023/09/28 02:37:42;;;;;;;5.60;4.25;;;;;16.50;98654.00;;;;5052180;28;20045;-66
2023/09/28 02:40:10;;;;;;;6.50;4.35;;;;;16.50;98660.00;;;;5052204;28;20504;-66
2023/09/28 02:42:37;;;;;;;4.70;4.10;;;;;16.60;98657.00;;;;5051964;28;20045;-67
2023/09/28 02:45:11;;;;;;;6.60;4.50;;;;;16.60;98657.00;;;;5051573;28;20037;-66
2023/09/28 02:47:43;;;;;;;4.85;4.35;;;;;16.50;98649.00;;;;5052044;28;20037;-66
2023/09/28 02:50:11;;;;;;;5.55;4.45;;;;;16.40;98654.00;;;;5052440;28;20102;-66
2023/09/28 02:52:40;;;;;;;5.30;4.47;;;;;16.40;98656.00;;;;5051973;28;20119;-66
2023/09/28 02:55:09;;;;;;;5.72;4.68;;;;;16.20;98659.00;;;;5050094;28;20052;-66
2023/09/28 02:57:35;;;;;;;6.43;5.00;;;;;16.20;98661.00;;;;5051952;28;20170;-67
2023/09/28 03:00:24;;;;;;;5.32;4.15;;;;;16.20;98659.00;;;;5050442;28;20049;-66
2023/09/28 03:02:51;;;;;;;5.05;4.47;;;;;16.10;98658.00;;;;5052041;28;20049;-67
2023/09/28 03:05:23;;;;;;;6.38;4.80;;;;;16.00;98661.00;;;;5051125;28;20075;-66
2023/09/28 03:07:50;;;;;;;7.05;4.35;;;;;16.00;98659.00;;;;5051835;28;20159;-66
2023/09/28 03:10:17;;;;;;;6.18;4.57;;;;;15.90;98655.00;;;;5050620;28;20045;-66
2023/09/28 03:12:47;;;;;;;5.88;4.30;;;;;15.90;98663.00;;;;5051651;28;20053;-67
2023/09/28 03:15:14;;;;;;;45.75;29.83;;;;;16.00;98657.00;;;;5050908;28;20045;-66
2023/09/28 03:17:41;;;;;;;6.93;5.97;;;;;16.00;98654.00;;;;5050422;28;20601;-66
2023/09/28 03:20:13;;;;;;;6.47;4.43;;;;;16.00;98646.00;;;;5051716;28;20047;-66
2023/09/28 03:22:43;;;;;;;6.07;5.18;;;;;15.90;98648.00;;;;5051650;28;20041;-67
2023/09/28 03:25:16;;;;;;;6.28;4.60;;;;;15.80;98655.00;;;;5050953;28;20044;-66
2023/09/28 03:27:45;;;;;;;6.03;4.97;;;;;15.70;98653.00;;;;5034093;28;20052;-66
2023/09/28 03:30:13;;;;;;;6.32;4.75;;;;;15.70;98652.00;;;;5050354;28;20083;-66
2023/09/28 03:32:41;;;;;;;6.63;5.40;;;;;15.70;98646.00;;;;5033628;28;20068;-66
2023/09/28 03:35:11;;;;;;;6.30;5.13;;;;;15.70;98644.00;;;;5051052;28;20044;-66
2023/09/28 03:37:43;;;;;;;6.97;4.80;;;;;15.70;98649.00;;;;5050362;28;20045;-67
2023/09/28 03:40:11;;;;;;;6.45;4.13;;;;;15.70;98652.00;;;;5051768;28;20090;-65
2023/09/28 03:42:48;;;;;;;6.07;4.82;;;;;15.80;98655.00;;;;5051581;28;20406;-65
2023/09/28 03:45:20;;;;;;;7.63;4.80;;;;;15.70;98646.00;;;;5050917;28;20432;-66
2023/09/28 03:47:51;;;;;;;4.80;4.40;;;;;15.60;98647.00;;;;5051439;28;20095;-65
2023/09/28 03:50:22;;;;;;;5.30;4.80;;;;;15.60;98637.00;;;;5050264;28;20087;-66
2023/09/28 03:52:50;;;;;;;7.10;5.10;;;;;15.60;98650.00;;;;5050268;28;20049;-67
2023/09/28 03:55:19;;;;;;;6.05;4.70;;;;;15.60;98657.00;;;;5053243;28;20037;-66
2023/09/28 03:57:46;;;;;;;6.15;4.65;;;;;15.60;98650.00;;;;5054954;28;20102;-66
2023/09/28 04:00:15;;;;;;;5.43;4.88;;;;;15.70;98651.00;;;;5037119;28;20048;-66
2023/09/28 04:02:44;;;;;;;5.53;4.90;;;;;15.70;98650.00;;;;5054923;28;20049;-66
2023/09/28 04:05:15;;;;;;;7.38;5.03;;;;;15.70;98651.00;;;;5054065;28;20053;-66
2023/09/28 04:07:43;;;;;;;6.25;4.40;;;;;15.70;98651.00;;;;5054954;28;20374;-66
2023/09/28 04:10:11;;;;;;;6.93;4.43;;;;;15.70;98654.00;;;;5053416;28;20090;-65
2023/09/28 04:12:38;;;;;;;5.55;5.00;;;;;15.60;98644.00;;;;5054666;28;20045;-65
2023/09/28 04:15:05;;;;;;;4.97;4.47;;;;;15.60;98658.00;;;;5052893;28;20051;-65
2023/09/28 04:17:34;;;;;;;4.55;4.07;;;;;15.60;98646.00;;;;5053390;28;20036;-65
2023/09/28 04:20:04;;;;;;;5.55;5.00;;;;;15.70;98646.00;;;;5054688;28;20047;-65
2023/09/28 04:22:32;;;;;;;5.57;4.65;;;;;15.60;98642.00;;;;5054688;28;20460;-66
2023/09/28 04:24:58;;;;;;;6.88;4.82;;;;;15.60;98639.00;;;;5053930;28;20071;-66
2023/09/28 04:27:25;;;;;;;8.02;5.07;;;;;15.60;98652.00;;;;5053107;28;20055;-65
2023/09/28 04:29:52;;;;;;;5.43;4.95;;;;;15.60;98661.00;;;;5054504;28;20144;-66
2023/09/28 04:32:19;;;;;;;7.45;4.82;;;;;15.60;98652.00;;;;5054586;28;20051;-65
2023/09/28 04:34:45;;;;;;;7.20;4.95;;;;;15.60;98666.00;;;;5053825;28;20679;-65
2023/09/28 04:37:12;;;;;;;6.95;4.38;;;;;15.60;98660.00;;;;5053157;28;20041;-66
2023/09/28 04:39:39;;;;;;;6.47;5.28;;;;;15.70;98658.00;;;;5053035;28;20039;-66
2023/09/28 04:42:05;;;;;;;7.80;4.88;;;;;15.70;98664.00;;;;5054207;28;20544;-65
2023/09/28 04:44:32;;;;;;;6.35;4.95;;;;;15.80;98662.00;;;;5053485;28;20041;-65
2023/09/28 04:46:58;;;;;;;6.93;4.93;;;;;15.70;98663.00;;;;5052747;28;20110;-66
2023/09/28 04:49:25;;;;;;;6.25;5.65;;;;;15.70;98671.00;;;;5054108;28;20037;-65
2023/09/28 04:51:52;;;;;;;5.78;5.00;;;;;15.70;98669.00;;;;5054109;28;20045;-65
2023/09/28 04:54:18;;;;;;;5.68;5.18;;;;;15.80;98678.00;;;;5053476;28;20041;-66
2023/09/28 04:56:45;;;;;;;7.93;5.70;;;;;15.90;98679.00;;;;5053949;28;20099;-67
2023/09/28 04:59:12;;;;;;;6.53;5.35;;;;;15.90;98693.00;;;;5053859;28;20041;-65
2023/09/28 05:01:39;;;;;;;6.47;5.80;;;;;15.90;98690.00;;;;5052494;28;20136;-66
2023/09/28 05:04:10;;;;;;;7.38;5.40;;;;;15.90;98695.00;;;;5053193;28;20059;-66
2023/09/28 05:06:40;;;;;;;6.63;5.57;;;;;15.90;98689.00;;;;5051235;28;20144;-66
2023/09/28 05:09:07;;;;;;;10.85;7.70;;;;;15.90;98687.00;;;;5052374;28;20048;-65
2023/09/28 05:11:34;;;;;;;10.00;5.75;;;;;15.80;98692.00;;;;5053858;28;20044;-66
2023/09/28 05:14:01;;;;;;;6.25;5.43;;;;;15.60;98678.00;;;;5053152;28;20056;-65
2023/09/28 05:16:28;;;;;;;8.60;5.68;;;;;15.50;98691.00;;;;5053230;28;20045;-66
2023/09/28 05:18:55;;;;;;;8.65;6.00;;;;;15.50;98681.00;;;;5053556;28;20048;-68
2023/09/28 05:21:23;;;;;;;6.68;5.80;;;;;15.50;98700.00;;;;5052308;28;20102;-68
2023/09/28 05:23:50;;;;;;;7.43;6.35;;;;;15.50;98695.00;;;;5053131;28;20075;-67
2023/09/28 05:26:17;;;;;;;8.45;5.22;;;;;15.50;98687.00;;;;5052100;28;20110;-67
2023/09/28 05:28:44;;;;;;;9.82;6.63;;;;;15.40;98691.00;;;;5053316;28;20650;-67
2023/09/28 05:31:11;;;;;;;7.38;5.30;;;;;15.30;98697.00;;;;5052261;28;20053;-68
2023/09/28 05:33:38;;;;;;;6.25;5.63;;;;;15.40;98703.00;;;;5051513;28;20037;-66
2023/09/28 05:36:05;;;;;;;6.43;5.57;;;;;15.50;98714.00;;;;5052949;28;20072;-67
2023/09/28 05:38:31;;;;;;;8.10;6.43;;;;;15.50;98710.00;;;;5052071;28;20055;-66
2023/09/28 05:40:58;;;;;;;12.52;6.00;;;;;15.40;98694.00;;;;5053239;28;20037;-67
2023/09/28 05:43:24;;;;;;;5.38;4.88;;;;;15.20;98694.00;;;;5052885;28;20098;-68
2023/09/28 05:45:51;;;;;;;8.27;4.85;;;;;15.20;98696.00;;;;5052860;28;20458;-66
2023/09/28 05:48:18;;;;;;;13.35;5.35;;;;;15.20;98706.00;;;;5053038;28;20047;-66
2023/09/28 05:50:45;;;;;;;6.88;5.68;;;;;15.20;98715.00;;;;5051571;28;20041;-67
2023/09/28 05:53:11;;;;;;;5.80;4.90;;;;;15.20;98715.00;;;;5051732;28;20048;-66
2023/09/28 05:55:38;;;;;;;8.00;5.80;;;;;15.10;98715.00;;;;5052077;28;20094;-66
2023/09/28 05:58:05;;;;;;;7.10;5.78;;;;;15.10;98731.00;;;;5052940;28;20075;-66
2023/09/28 06:00:31;;;;;;;9.43;6.13;;;;;15.20;98733.00;;;;5052881;28;20398;-65
2023/09/28 06:02:58;;;;;;;6.72;5.90;;;;;15.40;98747.00;;;;5052673;28;20126;-65
2023/09/28 06:05:25;;;;;;;10.38;6.88;;;;;15.40;98738.00;;;;5051962;28;20088;-66
2023/09/28 06:07:53;;;;;;;10.52;6.15;;;;;15.50;98739.00;;;;5052920;28;20052;-65
2023/09/28 06:10:21;;;;;;;7.60;6.78;;;;;15.60;98740.00;;;;5051170;28;20045;-65
2023/09/28 06:12:48;;;;;;;7.47;6.40;;;;;15.60;98733.00;;;;5051675;28;20140;-65
2023/09/28 06:15:15;;;;;;;8.63;5.90;;;;;15.60;98738.00;;;;5050476;28;20052;-66
2023/09/28 06:17:42;;;;;;;6.80;6.10;;;;;15.50;98730.00;;;;5052021;28;20104;-66
2023/09/28 06:20:09;;;;;;;7.20;5.45;;;;;15.50;98737.00;;;;5052454;28;20041;-66
2023/09/28 06:22:36;;;;;;;6.45;5.63;;;;;15.70;98731.00;;;;5052378;28;20098;-66
2023/09/28 06:25:03;;;;;;;6.65;5.40;;;;;15.70;98741.00;;;;5050682;28;20040;-65
2023/09/28 06:27:30;;;;;;;8.63;5.55;;;;;15.90;98759.00;;;;5052118;28;20047;-66
2023/09/28 06:29:57;;;;;;;7.07;5.82;;;;;16.00;98767.00;;;;5052052;28;20045;-66
2023/09/28 06:32:25;;;;;;;9.65;5.97;;;;;16.20;98769.00;;;;5052084;28;20508;-66
2023/09/28 06:34:52;;;;;;;10.77;6.78;;;;;16.20;98761.00;;;;5051493;28;20405;-66
2023/09/28 06:37:19;;;;;;;14.35;6.43;;;;;16.20;98770.00;;;;5051964;28;20095;-66
2023/09/28 06:39:45;;;;;;;10.45;5.95;;;;;16.20;98764.00;;;;5052042;28;20119;-66
2023/09/28 06:42:12;;;;;;;11.18;6.28;;;;;16.10;98764.00;;;;5050893;28;20064;-66
2023/09/28 06:44:46;;;;;;;7.10;5.55;;;;;16.20;98777.00;;;;5051287;28;20107;-66
2023/09/28 06:47:13;;;;;;;7.45;5.80;;;;;16.40;98776.00;;;;5050622;28;20401;-66
2023/09/28 06:49:40;;;;;;;7.07;5.72;;;;;16.60;98780.00;;;;5051984;28;20040;-66
2023/09/28 06:52:06;;;;;;;9.60;6.00;;;;;16.80;98779.00;;;;5050813;28;20052;-67
2023/09/28 06:54:33;;;;;;;10.88;6.82;;;;;16.90;98788.00;;;;5051453;28;20063;-66
2023/09/28 06:57:01;;;;;;;10.35;6.22;;;;;17.00;98787.00;;;;5050691;28;20052;-66
2023/09/28 06:59:29;;;;;;;8.00;5.47;;;;;17.10;98787.00;;;;5051792;28;20116;-66
2023/09/28 07:01:56;;;;;;;6.35;5.68;;;;;17.20;98791.00;;;;5050508;28;20052;-65
2023/09/28 07:04:22;;;;;;;9.80;5.78;;;;;17.20;98781.00;;;;5051147;28;20044;-66
2023/09/28 07:06:49;;;;;;;9.68;6.05;;;;;17.20;98781.00;;;;5051565;28;20044;-66
2023/09/28 07:09:15;;;;;;;12.40;5.97;;;;;17.30;98786.00;;;;5050446;28;20484;-66
2023/09/28 07:11:42;;;;;;;8.50;6.00;;;;;17.40;98782.00;;;;5051808;28;20071;-66
2023/09/28 07:14:09;;;;;;;11.57;7.22;;;;;17.50;98785.00;;;;5051040;28;20080;-66
2023/09/28 07:16:36;;;;;;;7.68;6.13;;;;;17.60;98777.00;;;;5051702;28;20049;-67
2023/09/28 07:19:04;;;;;;;17.30;9.48;;;;;17.70;98775.00;;;;5050378;28;20135;-66
2023/09/28 07:21:31;;;;;;;12.25;8.05;;;;;17.80;98772.00;;;;5051618;28;20405;-67
2023/09/28 07:23:59;;;;;;;12.25;6.80;;;;;17.80;98777.00;;;;5050999;28;20047;-66
2023/09/28 07:26:38;;;;;;;9.43;6.40;;;;;17.90;98780.00;;;;5051508;28;20421;-66
2023/09/28 07:29:04;;;;;;;12.15;6.90;;;;;18.00;98771.00;;;;5052278;28;20065;-66
2023/09/28 07:31:31;;;;;;;12.43;7.03;;;;;18.10;98795.00;;;;5054112;28;20048;-66
2023/09/28 07:33:57;;;;;;;10.93;6.28;;;;;18.20;98796.00;;;;5054821;28;20127;-65
2023/09/28 07:36:24;;;;;;;12.75;6.40;;;;;18.30;98798.00;;;;5055290;28;20505;-66
2023/09/28 07:38:51;;;;;;;12.15;7.60;;;;;18.40;98800.00;;;;5054015;28;20102;-66
2023/09/28 07:41:18;;;;;;;9.40;6.43;;;;;18.50;98810.00;;;;5055267;28;20063;-66
2023/09/28 07:43:44;;;;;;;10.85;6.90;;;;;18.60;98803.00;;;;5054787;28;20456;-66
2023/09/28 07:46:13;;;;;;;13.30;6.80;;;;;18.60;98813.00;;;;5055190;28;20052;-65
2023/09/28 07:48:40;;;;;;;11.90;6.50;;;;;18.70;98802.00;;;;5055071;28;20041;-65
2023/09/28 07:51:06;;;;;;;13.80;7.05;;;;;18.80;98813.00;;;;5055016;28;20045;-65
2023/09/28 07:53:33;;;;;;;14.25;6.72;;;;;18.90;98811.00;;;;5054624;28;20401;-64
2023/09/28 07:56:00;;;;;;;15.68;7.20;;;;;19.00;98813.00;;;;5055046;28;20111;-65
2023/09/28 07:58:26;;;;;;;11.23;6.28;;;;;19.20;98813.00;;;;5054115;28;20040;-65
2023/09/28 08:00:55;;;;;;;13.05;6.05;;;;;19.30;98815.00;;;;5055039;28;20497;-64
2023/09/28 08:03:22;;;;;;;9.40;6.13;;;;;19.50;98814.00;;;;5055156;28;20121;-65
2023/09/28 08:05:49;;;;;;;10.68;5.40;;;;;19.60;98811.00;;;;5054562;28;20501;-65
2023/09/28 08:08:18;;;;;;;9.52;5.70;;;;;19.70;98817.00;;;;5054917;28;20053;-65
2023/09/28 08:10:45;;;;;;;8.73;5.35;;;;;19.90;98808.00;;;;5054737;28;20501;-65
2023/09/28 08:13:12;;;;;;;11.30;5.45;;;;;20.00;98815.00;;;;5054810;28;20048;-65
2023/09/28 08:15:40;;;;;;;4.75;3.42;;;;;20.10;98820.00;;;;5054217;28;20045;-65
2023/09/28 08:18:08;;;;;;;5.43;3.13;;;;;20.30;98822.00;;;;5053630;28;20098;-65
2023/09/28 08:20:35;;;;;;;5.30;3.28;;;;;20.40;98826.00;;;;5054950;28;20489;-64
2023/09/28 08:23:04;;;;;;;4.45;3.03;;;;;20.50;98832.00;;;;5054509;28;20052;-65
2023/09/28 08:25:32;;;;;;;6.32;3.20;;;;;20.70;98824.00;;;;5052699;28;20077;-64
2023/09/28 08:27:59;;;;;;;5.53;3.63;;;;;20.80;98825.00;;;;5054686;28;20469;-64
2023/09/28 08:30:26;;;;;;;4.75;3.63;;;;;20.90;98831.00;;;;5054475;28;20044;-64
2023/09/28 08:32:53;;;;;;;6.25;2.92;;;;;21.00;98824.00;;;;5053486;28;20049;-64
2023/09/28 08:35:20;;;;;;;4.22;2.92;;;;;21.10;98829.00;;;;5053683;28;20129;-65
2023/09/28 08:37:47;;;;;;;5.75;3.30;;;;;21.20;98832.00;;;;5054410;28;20048;-64
2023/09/28 08:40:14;;;;;;;4.90;3.40;;;;;21.30;98835.00;;;;5054202;28;20071;-65
2023/09/28 08:42:45;;;;;;;4.32;2.80;;;;;21.40;98844.00;;;;5054257;28;20036;-65
2023/09/28 08:45:14;;;;;;;4.53;3.00;;;;;21.60;98853.00;;;;5053682;28;20051;-64
2023/09/28 08:47:48;;;;;;;3.90;2.90;;;;;21.70;98851.00;;;;5054193;28;20041;-65
2023/09/28 08:50:22;;;;;;;4.35;3.45;;;;;21.80;98853.00;;;;5054077;28;20037;-65
2023/09/28 08:52:54;;;;;;;4.05;2.80;;;;;21.90;98851.00;;;;5052814;28;20433;-65
2023/09/28 08:55:21;;;;;;;4.25;2.97;;;;;22.00;98850.00;;;;5053426;28;20128;-65
2023/09/28 08:57:48;;;;;;;6.45;3.15;;;;;22.10;98849.00;;;;5036175;28;20057;-64
2023/09/28 09:00:15;;;;;;;6.03;3.30;;;;;22.10;98843.00;;;;5052796;28;20060;-65
2023/09/28 09:02:43;;;;;;;5.38;3.28;;;;;22.20;98845.00;;;;5054094;28;20307;-65
2023/09/28 09:05:13;;;;;;;9.23;3.08;;;;;22.20;98851.00;;;;5052274;28;20098;-64
2023/09/28 09:07:43;;;;;;;7.30;3.50;;;;;22.30;98849.00;;;;5052753;28;20107;-65
2023/09/28 09:10:12;;;;;;;4.40;3.20;;;;;22.40;98847.00;;;;5053863;28;20048;-65
2023/09/28 09:12:39;;;;;;;4.07;2.92;;;;;22.50;98850.00;;;;5053805;28;20064;-64
2023/09/28 09:15:06;;;;;;;4.53;3.13;;;;;22.50;98840.00;;;;5051939;28;20048;-65
2023/09/28 09:17:34;;;;;;;5.10;3.08;;;;;22.60;98832.00;;;;5052386;28;20045;-65
2023/09/28 09:20:05;;;;;;;4.85;3.10;;;;;22.70;98832.00;;;;5052343;28;20075;-65
2023/09/28 09:22:31;;;;;;;5.05;2.67;;;;;22.80;98832.00;;;;5053519;28;20041;-65
2023/09/28 09:25:15;;;;;;;3.88;3.03;;;;;23.00;98825.00;;;;5052649;28;20048;-65
2023/09/28 09:27:43;;;;;;;6.32;3.03;;;;;23.10;98827.00;;;;5052179;28;20528;-65
2023/09/28 09:30:14;;;;;;;4.35;3.10;;;;;23.20;98825.00;;;;5053160;28;20041;-65
2023/09/28 09:32:42;;;;;;;3.67;2.75;;;;;23.30;98826.00;;;;5053367;28;20553;-65
2023/09/28 09:35:10;;;;;;;5.78;2.90;;;;;23.40;98820.00;;;;5052665;28;20047;-65
2023/09/28 09:37:41;;;;;;;3.83;2.30;;;;;23.50;98823.00;;;;5052965;28;20044;-65
2023/09/28 09:40:12;;;;;;;4.38;3.08;;;;;23.60;98821.00;;;;5053097;28;20045;-65
2023/09/28 09:42:41;;;;;;;3.45;2.30;;;;;23.80;98824.00;;;;5053106;28;20041;-65
2023/09/28 09:45:11;;;;;;;2.67;2.15;;;;;23.90;98822.00;;;;5052379;28;20063;-65
2023/09/28 09:47:48;;;;;;;4.07;3.50;;;;;24.00;98823.00;;;;5051967;28;20045;-65
2023/09/28 09:50:17;;;;;;;6.25;2.97;;;;;24.10;98822.00;;;;5053280;28;20115;-65
2023/09/28 09:52:44;;;;;;;4.75;2.80;;;;;24.20;98824.00;;;;5052253;28;20045;-65
2023/09/28 09:55:12;;;;;;;5.60;2.95;;;;;24.30;98824.00;;;;5052252;28;20064;-65
2023/09/28 09:57:41;;;;;;;4.47;2.47;;;;;24.40;98826.00;;;;5052884;28;20049;-65
2023/09/28 10:00:09;;;;;;;5.55;3.03;;;;;24.40;98826.00;;;;5052779;28;20041;-65
2023/09/28 10:02:39;;;;;;;5.25;2.70;;;;;24.40;98829.00;;;;5034852;28;20048;-65
2023/09/28 10:05:13;;;;;;;4.57;3.03;;;;;24.40;98832.00;;;;5052179;28;20041;-65
2023/09/28 10:07:42;;;;;;;4.18;2.70;;;;;24.50;98836.00;;;;5051513;28;20045;-65
2023/09/28 10:10:12;;;;;;;5.57;3.30;;;;;24.50;98838.00;;;;5052765;28;20037;-65
2023/09/28 10:12:40;;;;;;;4.63;3.42;;;;;24.50;98848.00;;;;5052490;28;20059;-65
2023/09/28 10:15:08;;;;;;;4.60;2.92;;;;;24.60;98842.00;;;;5051752;28;20124;-65
2023/09/28 10:17:35;;;;;;;5.97;2.83;;;;;24.60;98843.00;;;;5052355;28;20080;-65
2023/09/28 10:20:04;;;;;;;6.65;2.78;;;;;24.70;98846.00;;;;5052327;28;20041;-65
2023/09/28 10:22:31;;;;;;;3.35;2.95;;;;;24.90;98840.00;;;;5052405;28;20437;-65
2023/09/28 10:24:58;;;;;;;4.13;2.65;;;;;24.90;98838.00;;;;5051723;28;20041;-65
2023/09/28 10:27:24;;;;;;;3.25;2.60;;;;;25.00;98838.00;;;;5052287;28;20037;-65
2023/09/28 10:30:21;;;;;;;3.28;2.78;;;;;25.10;98833.00;;;;5052256;28;20429;-65
2023/09/28 10:32:51;;;;;;;5.35;2.80;;;;;25.10;98837.00;;;;5051220;28;20045;-65
2023/09/28 10:35:29;;;;;;;3.20;2.60;;;;;25.10;98841.00;;;;5051736;28;20467;-65
2023/09/28 10:38:19;;;;;;;4.47;3.00;;;;;25.20;98835.00;;;;5052251;28;20040;-62
2023/09/28 10:41:02;;;;;;;4.40;2.10;;;;;25.30;98841.00;;;;5050951;28;20399;-65
2023/09/28 10:43:32;;;;;;;3.55;2.85;;;;;25.30;98840.00;;;;5051517;28;20459;-64
2023/09/28 10:46:03;;;;;;;4.70;2.17;;;;;25.40;98852.00;;;;5051867;28;20056;-65
2023/09/28 10:48:45;;;;;;;2.88;2.08;;;;;25.50;98856.00;;;;5051868;28;20052;-65
2023/09/28 10:51:13;;;;;;;2.97;2.40;;;;;25.60;98855.00;;;;5051978;28;20116;-65
2023/09/28 10:53:41;;;;;;;3.33;2.40;;;;;25.60;98852.00;;;;5051237;28;20094;-65
2023/09/28 10:56:08;;;;;;;5.72;2.15;;;;;25.60;98851.00;;;;5051811;28;20120;-65
2023/09/28 10:58:36;;;;;;;8.93;3.00;;;;;25.80;98842.00;;;;5051831;28;20048;-64
2023/09/28 11:01:06;;;;;;;3.42;2.55;;;;;25.70;98837.00;;;;5051649;28;20409;-65
2023/09/28 11:03:35;;;;;;;5.00;3.15;;;;;25.80;98836.00;;;;5052921;28;20114;-65
2023/09/28 11:06:03;;;;;;;4.25;2.38;;;;;26.00;98834.00;;;;5055931;28;20048;-65
2023/09/28 11:08:31;;;;;;;5.63;2.80;;;;;26.00;98831.00;;;;5055851;28;20044;-65
2023/09/28 11:11:01;;;;;;;2.42;2.10;;;;;26.10;98828.00;;;;5054703;28;20048;-65
2023/09/28 11:13:31;;;;;;;3.67;2.47;;;;;26.10;98819.00;;;;5054263;28;20048;-66
2023/09/28 11:15:59;;;;;;;8.88;3.03;;;;;26.20;98830.00;;;;5055967;28;20391;-66
2023/09/28 11:18:26;;;;;;;3.25;2.30;;;;;26.30;98825.00;;;;5055851;28;20049;-67
2023/09/28 11:20:58;;;;;;;4.90;2.15;;;;;26.50;98822.00;;;;5055765;28;20556;-67
2023/09/28 11:23:24;;;;;;;5.80;2.78;;;;;26.60;98828.00;;;;5055407;28;20048;-67
2023/09/28 11:25:52;;;;;;;4.60;2.30;;;;;26.70;98825.00;;;;5055503;28;20063;-67
2023/09/28 11:28:21;;;;;;;3.65;2.25;;;;;26.70;98830.00;;;;5055525;28;20045;-67
2023/09/28 11:31:11;;;;;;;3.85;2.35;;;;;26.80;98820.00;;;;5055597;28;20037;-67
2023/09/28 11:33:43;;;;;;;4.65;2.25;;;;;26.80;98825.00;;;;5055090;28;20118;-67
2023/09/28 11:36:15;;;;;;;5.85;2.80;;;;;26.80;98818.00;;;;5055464;28;20037;-67
2023/09/28 11:38:43;;;;;;;3.20;2.53;;;;;26.90;98822.00;;;;5055562;28;20041;-67
2023/09/28 11:41:10;;;;;;;3.13;2.50;;;;;26.90;98814.00;;;;5054109;28;20323;-68
2023/09/28 11:43:53;;;;;;;4.30;2.45;;;;;27.00;98820.00;;;;5054687;28;20044;-66
2023/09/28 11:46:25;;;;;;;3.63;2.30;;;;;27.10;98818.00;;;;5055259;28;20041;-66
2023/09/28 11:49:14;;;;;;;3.60;2.22;;;;;27.30;98816.00;;;;5055136;28;20510;-66
2023/09/28 11:51:41;;;;;;;5.38;2.40;;;;;27.30;98807.00;;;;5053853;28;20472;-66
2023/09/28 11:54:12;;;;;;;2.78;2.15;;;;;27.40;98812.00;;;;5054382;28;20044;-63
2023/09/28 11:56:44;;;;;;;4.00;2.53;;;;;27.60;98802.00;;;;5053741;28;20136;-64
2023/09/28 11:59:17;;;;;;;7.70;2.63;;;;;27.70;98800.00;;;;5055022;28;20049;-64
2023/09/28 12:01:45;;;;;;;3.45;2.20;;;;;27.80;98797.00;;;;5054893;28;20128;-64
2023/09/28 12:04:13;;;;;;;4.03;2.30;;;;;27.80;98792.00;;;;5054221;28;20048;-64
2023/09/28 12:06:40;;;;;;;3.70;2.22;;;;;27.80;98802.00;;;;5054734;28;20041;-64
2023/09/28 12:09:08;;;;;;;4.38;2.58;;;;;27.90;98796.00;;;;5053550;28;20114;-64
2023/09/28 12:11:39;;;;;;;3.55;2.28;;;;;27.90;98782.00;;;;5054723;28;20047;-64
2023/09/28 12:14:07;;;;;;;3.80;2.60;;;;;27.90;98782.00;;;;5054154;28;20106;-65
2023/09/28 12:16:34;;;;;;;4.70;2.22;;;;;28.00;98775.00;;;;5053984;28;20045;-65
2023/09/28 12:19:01;;;;;;;3.15;2.28;;;;;28.10;98782.00;;;;5054709;28;20056;-65
2023/09/28 12:21:27;;;;;;;3.53;2.40;;;;;28.20;98781.00;;;;5054619;28;20043;-66
2023/09/28 12:23:55;;;;;;;4.13;2.30;;;;;28.30;98784.00;;;;5054058;28;20299;-65
2023/09/28 12:26:23;;;;;;;6.05;3.00;;;;;28.40;98783.00;;;;5054360;28;20045;-65